Time;durP1;ratioP1;P1;durP2;ratioP2;P2;SDS_P1;SDS_P2;PMS_P1;PMS_P2;Temp;Humidity;BMP_temperature;BMP_pressure;BME280_temperature;BME280_humidity;BME280_pressure;Samples;Min_cycle;Max_cycle;Signal;HPM_P1;HPM_P2
2021/11/29 00:01:36;;;;;;;3.55;1.20;;;-0.30;99.90;;;;;;5007586;28;20488;-66
2021/11/29 00:04:02;;;;;;;3.78;0.80;;;-0.30;99.90;;;;;;4994396;28;20135;-65
2021/11/29 00:06:27;;;;;;;5.43;1.40;;;-0.20;99.90;;;;;;5008041;28;20042;-65
2021/11/29 00:08:53;;;;;;;7.85;1.55;;;-0.30;99.90;;;;;;4991409;28;20049;-65
2021/11/29 00:11:19;;;;;;;6.90;1.30;;;-0.20;99.90;;;;;;4976166;28;20046;-66
2021/11/29 00:13:45;;;;;;;10.13;1.90;;;-0.20;99.90;;;;;;5007564;28;20488;-65
2021/11/29 00:16:10;;;;;;;7.80;1.05;;;-0.30;99.90;;;;;;5004875;28;20030;-66
2021/11/29 00:18:37;;;;;;;8.30;1.38;;;-0.20;99.90;;;;;;5005904;28;20088;-65
2021/11/29 00:21:04;;;;;;;6.32;1.50;;;-0.30;99.90;;;;;;4999505;28;20072;-65
2021/11/29 00:23:30;;;;;;;4.88;1.10;;;-0.30;99.90;;;;;;5008041;28;20041;-65
2021/11/29 00:25:56;;;;;;;5.00;1.27;;;-0.30;99.90;;;;;;5005262;28;20042;-65
2021/11/29 00:28:21;;;;;;;6.03;1.50;;;-0.30;99.90;;;;;;4972437;28;20069;-66
2021/11/29 00:30:47;;;;;;;5.95;1.40;;;-0.30;99.90;;;;;;5001312;28;20034;-65
2021/11/29 00:33:14;;;;;;;5.38;1.00;;;-0.30;99.90;;;;;;5007700;28;20045;-65
2021/11/29 00:35:40;;;;;;;6.60;1.55;;;-0.30;99.90;;;;;;5001258;28;20042;-66
2021/11/29 00:38:08;;;;;;;5.47;1.05;;;-0.30;99.90;;;;;;5007386;28;20034;-65
2021/11/29 00:40:34;;;;;;;3.03;0.88;;;-0.30;99.90;;;;;;4975302;28;20046;-66
2021/11/29 00:42:59;;;;;;;9.63;1.23;;;-0.30;99.90;;;;;;5008328;28;20521;-66
2021/11/29 00:45:25;;;;;;;9.32;1.38;;;-0.30;99.90;;;;;;4995529;28;20136;-66
2021/11/29 00:47:51;;;;;;;7.45;0.88;;;-0.30;99.90;;;;;;5007174;28;20050;-66
2021/11/29 00:50:18;;;;;;;3.78;0.98;;;-0.30;99.90;;;;;;5010482;28;20039;-66
2021/11/29 00:52:44;;;;;;;5.18;1.23;;;-0.30;99.90;;;;;;4996066;28;20072;-65
2021/11/29 00:55:12;;;;;;;11.43;1.30;;;-0.30;99.90;;;;;;5010205;28;20402;-66
2021/11/29 00:57:38;;;;;;;8.40;1.30;;;-0.30;99.90;;;;;;5002523;28;20092;-66
2021/11/29 01:00:10;;;;;;;7.18;1.52;;;-0.40;99.90;;;;;;5002051;28;20073;-66
2021/11/29 01:02:36;;;;;;;8.90;0.95;;;-0.30;99.90;;;;;;5005225;28;20552;-66
2021/11/29 01:05:03;;;;;;;5.68;1.23;;;-0.30;99.90;;;;;;5009590;28;20112;-66
2021/11/29 01:07:29;;;;;;;7.38;1.02;;;-0.30;99.90;;;;;;5004240;28;20045;-65
2021/11/29 01:09:54;;;;;;;6.32;1.00;;;-0.30;99.90;;;;;;5001950;28;20053;-66
2021/11/29 01:12:20;;;;;;;5.10;1.02;;;-0.20;99.90;;;;;;5004839;28;20084;-66
2021/11/29 01:14:46;;;;;;;4.78;0.98;;;-0.20;99.90;;;;;;5010556;28;20486;-66
2021/11/29 01:17:12;;;;;;;3.60;1.13;;;-0.30;99.90;;;;;;5005766;28;20464;-66
2021/11/29 01:19:38;;;;;;;6.88;0.90;;;-0.20;99.90;;;;;;5010574;28;20045;-66
2021/11/29 01:22:05;;;;;;;7.75;0.80;;;-0.10;99.90;;;;;;5004736;28;20038;-66
2021/11/29 01:24:31;;;;;;;6.80;1.02;;;-0.10;99.90;;;;;;5002611;28;20048;-65
2021/11/29 01:26:57;;;;;;;4.53;0.90;;;0.00;99.90;;;;;;5002268;28;20042;-66
2021/11/29 01:29:23;;;;;;;6.60;1.00;;;0.00;99.90;;;;;;5007760;28;20157;-66
2021/11/29 01:31:49;;;;;;;7.70;1.33;;;0.00;99.90;;;;;;4997080;28;20567;-65
2021/11/29 01:34:16;;;;;;;3.17;0.73;;;0.00;99.90;;;;;;5004660;28;20070;-65
2021/11/29 01:36:42;;;;;;;5.45;0.82;;;0.10;99.90;;;;;;5011498;28;20029;-65
2021/11/29 01:39:09;;;;;;;6.47;0.75;;;0.20;99.90;;;;;;5003081;28;20038;-65
2021/11/29 01:41:35;;;;;;;7.38;0.85;;;0.20;99.90;;;;;;5010714;28;20037;-65
2021/11/29 01:44:01;;;;;;;5.00;0.90;;;0.20;99.90;;;;;;4994763;28;20038;-65
2021/11/29 01:46:27;;;;;;;4.53;0.93;;;0.20;99.90;;;;;;5007781;28;20095;-65
2021/11/29 01:48:53;;;;;;;8.48;1.10;;;0.20;99.90;;;;;;5004598;28;20038;-65
2021/11/29 01:51:19;;;;;;;6.25;0.80;;;0.20;99.90;;;;;;5002541;28;20565;-65
2021/11/29 01:53:45;;;;;;;4.20;0.60;;;0.30;99.90;;;;;;4989346;28;20390;-65
2021/11/29 01:56:10;;;;;;;3.50;0.52;;;0.30;99.90;;;;;;4997295;28;20133;-65
2021/11/29 01:58:38;;;;;;;6.28;0.88;;;0.30;99.90;;;;;;5003198;28;20109;-65
2021/11/29 02:01:14;;;;;;;1.95;0.40;;;0.20;99.90;;;;;;5010702;28;20577;-65
2021/11/29 02:03:41;;;;;;;4.38;0.77;;;0.20;99.90;;;;;;5005299;28;20050;-66
2021/11/29 02:06:07;;;;;;;5.97;0.68;;;0.20;99.90;;;;;;5008942;28;20064;-65
2021/11/29 02:08:33;;;;;;;7.70;0.70;;;0.30;99.90;;;;;;5004930;28;20034;-66
2021/11/29 02:10:59;;;;;;;2.60;0.63;;;0.30;99.90;;;;;;4998799;28;20038;-65
2021/11/29 02:13:24;;;;;;;4.60;0.55;;;0.30;99.90;;;;;;5009354;28;20441;-65
2021/11/29 02:15:51;;;;;;;2.42;0.43;;;0.40;99.90;;;;;;5003454;28;20092;-65
2021/11/29 02:18:24;;;;;;;4.18;0.47;;;0.40;99.90;;;;;;5007381;28;20129;-65
2021/11/29 02:21:13;;;;;;;4.10;0.70;;;0.60;99.90;;;;;;5007204;28;20574;-65
2021/11/29 02:23:45;;;;;;;5.30;0.63;;;0.60;99.90;;;;;;5006102;28;20044;-65
2021/11/29 02:26:11;;;;;;;4.10;0.63;;;0.80;99.90;;;;;;5005216;28;20514;-65
2021/11/29 02:28:40;;;;;;;4.68;0.52;;;1.10;99.90;;;;;;5006650;28;20454;-65
2021/11/29 02:31:08;;;;;;;4.72;0.50;;;1.20;99.90;;;;;;5005425;28;20407;-65
2021/11/29 02:33:34;;;;;;;8.07;0.95;;;1.30;99.90;;;;;;5008133;28;20562;-64
2021/11/29 02:35:59;;;;;;;3.28;0.50;;;1.40;99.90;;;;;;5003721;28;20200;-65
2021/11/29 02:38:25;;;;;;;6.30;0.50;;;1.40;99.90;;;;;;5008364;28;20484;-64
2021/11/29 02:40:51;;;;;;;3.47;0.65;;;1.40;99.90;;;;;;5005962;28;20042;-64
2021/11/29 02:43:17;;;;;;;2.70;0.50;;;1.40;99.90;;;;;;5007117;28;20042;-64
2021/11/29 02:45:42;;;;;;;3.92;0.50;;;1.40;99.90;;;;;;5002951;28;20101;-64
2021/11/29 02:48:08;;;;;;;5.93;0.57;;;1.40;99.90;;;;;;5008496;28;20121;-63
2021/11/29 02:50:38;;;;;;;3.97;0.60;;;1.40;99.90;;;;;;5005228;28;20034;-64
2021/11/29 02:53:07;;;;;;;10.07;0.70;;;1.40;99.90;;;;;;5005154;28;20733;-63
2021/11/29 02:55:33;;;;;;;3.28;0.60;;;1.30;99.90;;;;;;5001940;28;20453;-64
2021/11/29 02:57:59;;;;;;;5.60;0.70;;;1.40;99.90;;;;;;5009440;28;20081;-63
2021/11/29 03:00:25;;;;;;;5.53;0.50;;;1.30;99.90;;;;;;5007764;28;20034;-63
2021/11/29 03:03:05;;;;;;;4.75;0.60;;;1.40;99.90;;;;;;4984410;28;20050;-63
2021/11/29 03:05:30;;;;;;;6.30;0.90;;;1.40;99.90;;;;;;5008583;28;20033;-63
2021/11/29 03:07:56;;;;;;;4.57;0.60;;;1.40;99.90;;;;;;5006322;28;20125;-63
2021/11/29 03:10:21;;;;;;;3.17;0.45;;;1.40;99.90;;;;;;5007672;28;20500;-63
2021/11/29 03:12:47;;;;;;;4.22;0.52;;;1.50;99.90;;;;;;5000782;28;20490;-63
2021/11/29 03:15:13;;;;;;;6.30;0.60;;;1.50;99.90;;;;;;5007227;28;20038;-63
2021/11/29 03:17:39;;;;;;;4.32;0.60;;;1.50;99.90;;;;;;5004035;28;20042;-63
2021/11/29 03:20:09;;;;;;;2.47;0.38;;;1.50;99.90;;;;;;5006710;28;20038;-63
2021/11/29 03:22:35;;;;;;;4.32;0.52;;;1.50;99.90;;;;;;4997104;28;20034;-63
2021/11/29 03:25:01;;;;;;;4.18;0.30;;;1.60;99.90;;;;;;5009000;28;20045;-63
2021/11/29 03:27:27;;;;;;;4.38;0.32;;;1.60;99.90;;;;;;4996896;28;20365;-63
2021/11/29 03:29:54;;;;;;;3.45;0.40;;;1.60;99.90;;;;;;4994399;28;20040;-63
2021/11/29 03:32:21;;;;;;;2.38;0.20;;;1.60;99.90;;;;;;5003477;28;20029;-64
2021/11/29 03:34:48;;;;;;;1.52;0.30;;;1.70;99.90;;;;;;5008020;28;20057;-63
2021/11/29 03:37:14;;;;;;;3.78;0.40;;;1.70;99.90;;;;;;5001747;28;25619;-64
2021/11/29 03:39:40;;;;;;;3.75;0.40;;;1.70;99.90;;;;;;4985089;28;20058;-64
2021/11/29 03:42:07;;;;;;;5.43;0.70;;;1.70;99.90;;;;;;5005320;28;20041;-64
2021/11/29 03:44:34;;;;;;;4.30;0.30;;;1.70;99.90;;;;;;5007058;28;20149;-64
2021/11/29 03:47:00;;;;;;;4.50;0.32;;;1.70;99.90;;;;;;4993605;28;20483;-64
2021/11/29 03:49:27;;;;;;;5.38;0.35;;;1.70;99.90;;;;;;5005185;28;20045;-64
2021/11/29 03:51:53;;;;;;;4.35;0.30;;;1.70;99.90;;;;;;5008915;28;20046;-64
2021/11/29 03:54:19;;;;;;;2.83;0.25;;;1.70;99.90;;;;;;4988607;28;20053;-64
2021/11/29 03:56:45;;;;;;;2.25;0.50;;;1.70;99.90;;;;;;5007621;28;20092;-64
2021/11/29 03:59:11;;;;;;;4.13;0.32;;;1.70;99.90;;;;;;5003932;28;20065;-64
2021/11/29 04:01:36;;;;;;;2.42;0.30;;;1.70;99.90;;;;;;5007842;28;20036;-64
2021/11/29 04:04:03;;;;;;;2.63;0.30;;;1.70;99.90;;;;;;5002386;28;20355;-64
2021/11/29 04:06:30;;;;;;;3.75;0.63;;;1.70;99.90;;;;;;5007626;28;20029;-64
2021/11/29 04:08:56;;;;;;;6.53;0.50;;;1.60;99.90;;;;;;5004097;28;20482;-64
2021/11/29 04:11:22;;;;;;;5.78;0.82;;;1.70;99.90;;;;;;5008282;28;20049;-64
2021/11/29 04:13:47;;;;;;;10.45;0.70;;;1.70;99.90;;;;;;5001525;28;20042;-64
2021/11/29 04:16:15;;;;;;;3.58;0.50;;;1.80;99.90;;;;;;5008591;28;20126;-64
2021/11/29 04:18:42;;;;;;;6.72;0.45;;;1.80;99.90;;;;;;4993990;28;20050;-65
2021/11/29 04:21:09;;;;;;;5.80;0.40;;;1.80;99.90;;;;;;5007970;28;20473;-64
2021/11/29 04:23:35;;;;;;;4.72;0.20;;;1.80;99.90;;;;;;5008954;28;20061;-64
2021/11/29 04:26:02;;;;;;;5.43;0.40;;;1.80;99.90;;;;;;5008821;28;20061;-64
2021/11/29 04:28:29;;;;;;;6.68;0.30;;;1.80;99.90;;;;;;5007004;28;20532;-64
2021/11/29 04:30:55;;;;;;;8.35;0.57;;;1.80;99.90;;;;;;5005513;28;20069;-64
2021/11/29 04:33:21;;;;;;;6.82;0.43;;;1.90;99.90;;;;;;5012990;28;20077;-64
2021/11/29 04:35:47;;;;;;;5.28;0.60;;;1.90;99.90;;;;;;5004247;28;20540;-64
2021/11/29 04:38:13;;;;;;;3.33;0.47;;;1.90;99.90;;;;;;5007366;28;20083;-64
2021/11/29 04:40:39;;;;;;;6.70;0.40;;;1.90;99.90;;;;;;4985972;28;20097;-63
2021/11/29 04:43:05;;;;;;;4.60;0.50;;;2.00;99.90;;;;;;5012516;28;20545;-63
2021/11/29 04:45:31;;;;;;;4.57;0.30;;;2.00;99.90;;;;;;5006705;28;20072;-64
2021/11/29 04:47:57;;;;;;;2.08;0.10;;;2.00;99.90;;;;;;5012008;28;20115;-63
2021/11/29 04:50:23;;;;;;;4.63;0.20;;;2.10;99.90;;;;;;5005318;28;20039;-63
2021/11/29 04:52:49;;;;;;;5.10;0.30;;;2.10;99.90;;;;;;5013140;28;20041;-63
2021/11/29 04:55:15;;;;;;;2.25;0.38;;;2.10;99.90;;;;;;5005121;28;20104;-64
2021/11/29 04:57:41;;;;;;;4.93;0.30;;;2.10;99.90;;;;;;5008949;28;20050;-63
2021/11/29 05:00:11;;;;;;;5.22;0.30;;;2.10;99.90;;;;;;5008788;28;20037;-64
2021/11/29 05:02:37;;;;;;;4.20;0.45;;;2.10;99.90;;;;;;5011030;28;20064;-63
2021/11/29 05:05:04;;;;;;;3.88;0.45;;;2.10;99.90;;;;;;5008403;28;20038;-63
2021/11/29 05:07:29;;;;;;;5.82;0.20;;;2.10;99.90;;;;;;5005620;28;20033;-63
2021/11/29 05:09:55;;;;;;;5.10;1.10;;;2.10;99.90;;;;;;5012650;28;20053;-63
2021/11/29 05:12:21;;;;;;;4.22;0.50;;;2.10;99.90;;;;;;5002718;28;20041;-63
2021/11/29 05:14:48;;;;;;;4.97;0.30;;;2.10;99.90;;;;;;5008840;28;20065;-63
2021/11/29 05:17:15;;;;;;;3.88;0.20;;;2.10;99.90;;;;;;5005600;28;20042;-64
2021/11/29 05:19:41;;;;;;;0.80;0.30;;;2.20;99.90;;;;;;5009738;28;20504;-64
2021/11/29 05:22:06;;;;;;;4.18;0.30;;;2.20;99.90;;;;;;5004729;28;20046;-64
2021/11/29 05:24:33;;;;;;;3.17;0.20;;;2.20;99.90;;;;;;5012212;28;20049;-64
2021/11/29 05:26:59;;;;;;;3.45;0.40;;;2.20;99.90;;;;;;5003623;28;20037;-64
2021/11/29 05:29:25;;;;;;;2.88;0.30;;;2.10;99.90;;;;;;4998143;28;20558;-64
2021/11/29 05:31:51;;;;;;;5.32;0.40;;;2.10;99.90;;;;;;5003493;28;20049;-64
2021/11/29 05:34:18;;;;;;;4.07;0.20;;;2.10;99.90;;;;;;5010260;28;20041;-64
2021/11/29 05:36:45;;;;;;;2.63;0.30;;;2.00;99.90;;;;;;5000778;28;20492;-64
2021/11/29 05:39:14;;;;;;;3.40;0.30;;;2.00;99.90;;;;;;5008323;28;20046;-64
2021/11/29 05:41:39;;;;;;;1.95;0.20;;;2.00;99.90;;;;;;5010412;28;20037;-64
2021/11/29 05:44:05;;;;;;;4.43;0.20;;;1.90;99.90;;;;;;5006279;28;20481;-64
2021/11/29 05:46:31;;;;;;;3.55;0.43;;;1.90;99.90;;;;;;5009216;28;20252;-64
2021/11/29 05:48:57;;;;;;;2.22;0.35;;;1.80;99.90;;;;;;5004367;28;20033;-64
2021/11/29 05:51:23;;;;;;;3.30;0.43;;;1.80;99.90;;;;;;4994757;28;20038;-64
2021/11/29 05:53:48;;;;;;;2.83;0.25;;;1.80;99.90;;;;;;5004387;28;20052;-64
2021/11/29 05:56:15;;;;;;;2.50;0.30;;;1.80;99.90;;;;;;5009586;28;20054;-64
2021/11/29 05:58:41;;;;;;;3.15;0.55;;;1.70;99.90;;;;;;5001809;28;20072;-64
2021/11/29 06:01:07;;;;;;;4.43;0.50;;;1.70;99.90;;;;;;5007897;28;20131;-64
2021/11/29 06:03:33;;;;;;;3.08;0.30;;;1.70;99.90;;;;;;4997455;28;20050;-64
2021/11/29 06:05:58;;;;;;;3.38;0.50;;;1.60;99.90;;;;;;5003795;28;20040;-64
2021/11/29 06:08:24;;;;;;;3.25;0.40;;;1.70;99.90;;;;;;5001338;28;20038;-63
2021/11/29 06:10:50;;;;;;;3.97;0.22;;;1.60;99.90;;;;;;5007246;28;20122;-65
2021/11/29 06:13:16;;;;;;;3.13;0.30;;;1.50;99.90;;;;;;5002945;28;20045;-64
2021/11/29 06:15:42;;;;;;;4.00;0.50;;;1.50;99.90;;;;;;4989780;28;20045;-64
2021/11/29 06:18:08;;;;;;;3.42;0.60;;;1.50;99.90;;;;;;5005355;28;20121;-64
2021/11/29 06:20:35;;;;;;;2.88;0.70;;;1.50;99.90;;;;;;5007139;28;20030;-64
2021/11/29 06:23:00;;;;;;;6.72;0.30;;;1.50;99.90;;;;;;5006347;28;20034;-64
2021/11/29 06:25:27;;;;;;;4.10;0.85;;;1.40;99.90;;;;;;5005432;28;20725;-64
2021/11/29 06:27:54;;;;;;;5.15;1.10;;;1.40;99.90;;;;;;5007720;28;20095;-64
2021/11/29 06:30:20;;;;;;;4.78;0.57;;;1.40;99.90;;;;;;5001415;28;20115;-64
2021/11/29 06:32:47;;;;;;;2.78;0.30;;;1.30;99.90;;;;;;5009151;28;20041;-64
2021/11/29 06:35:14;;;;;;;3.28;0.40;;;1.30;99.90;;;;;;5001522;28;20512;-64
2021/11/29 06:37:42;;;;;;;3.88;0.40;;;1.20;99.90;;;;;;5005164;28;20091;-64
2021/11/29 06:40:08;;;;;;;3.92;0.45;;;1.20;99.90;;;;;;5001058;28;20038;-64
2021/11/29 06:42:34;;;;;;;5.55;0.40;;;1.10;99.90;;;;;;5003136;28;20034;-64
2021/11/29 06:45:00;;;;;;;3.70;0.65;;;1.10;99.90;;;;;;5003290;28;20060;-64
2021/11/29 06:47:26;;;;;;;2.70;0.45;;;1.00;99.90;;;;;;5005647;28;20055;-64
2021/11/29 06:49:52;;;;;;;1.00;0.40;;;1.00;99.90;;;;;;5004593;28;20038;-64
2021/11/29 06:52:18;;;;;;;2.35;0.40;;;1.00;99.90;;;;;;5009189;28;20140;-64
2021/11/29 06:54:48;;;;;;;3.60;0.40;;;1.00;99.90;;;;;;4995015;28;20228;-64
2021/11/29 06:57:15;;;;;;;3.30;0.50;;;1.00;99.90;;;;;;5008646;28;20058;-64
2021/11/29 06:59:42;;;;;;;4.25;0.60;;;1.10;99.90;;;;;;5008511;28;20509;-64
2021/11/29 07:02:08;;;;;;;2.65;0.40;;;1.10;99.90;;;;;;5004483;28;20040;-64
2021/11/29 07:04:34;;;;;;;2.42;0.40;;;1.10;99.90;;;;;;5008696;28;20402;-64
2021/11/29 07:07:00;;;;;;;3.33;0.47;;;1.10;99.90;;;;;;4999244;28;20049;-64
2021/11/29 07:09:27;;;;;;;3.20;0.40;;;1.10;99.90;;;;;;5008782;28;20046;-64
2021/11/29 07:11:52;;;;;;;2.53;0.40;;;1.10;99.90;;;;;;5002131;28;20042;-64
2021/11/29 07:14:18;;;;;;;3.55;0.43;;;1.10;99.90;;;;;;4984672;28;20105;-64
2021/11/29 07:16:48;;;;;;;4.38;0.77;;;1.20;99.90;;;;;;5000123;28;20052;-64
2021/11/29 07:19:15;;;;;;;1.60;0.55;;;1.10;99.90;;;;;;5007305;28;20168;-64
2021/11/29 07:21:41;;;;;;;2.45;0.50;;;1.10;99.90;;;;;;5001635;28;20092;-64
2021/11/29 07:24:09;;;;;;;4.75;0.63;;;1.10;99.90;;;;;;4995042;28;20048;-63
2021/11/29 07:26:36;;;;;;;5.68;0.88;;;1.00;99.90;;;;;;4998714;28;20037;-63
2021/11/29 07:29:02;;;;;;;2.67;0.50;;;1.00;99.90;;;;;;5005140;28;20041;-63
2021/11/29 07:31:27;;;;;;;3.70;0.63;;;1.00;99.90;;;;;;4985636;28;20121;-64
2021/11/29 07:33:53;;;;;;;3.90;1.10;;;0.90;99.90;;;;;;5010820;28;20366;-64
2021/11/29 07:36:19;;;;;;;2.25;0.98;;;0.80;99.90;;;;;;5006920;28;20400;-64
2021/11/29 07:38:44;;;;;;;2.63;0.57;;;0.80;99.90;;;;;;5005938;28;20512;-64
2021/11/29 07:41:10;;;;;;;5.72;0.98;;;0.80;99.90;;;;;;5008597;28;20037;-64
2021/11/29 07:43:36;;;;;;;3.75;0.70;;;0.70;99.90;;;;;;5003382;28;20062;-64
2021/11/29 07:46:02;;;;;;;3.03;0.70;;;0.70;99.90;;;;;;5003628;28;20520;-64
2021/11/29 07:48:28;;;;;;;3.08;0.80;;;0.70;99.90;;;;;;5002615;28;20034;-64
2021/11/29 07:50:54;;;;;;;3.85;1.10;;;0.60;99.90;;;;;;5007950;28;20046;-64
2021/11/29 07:53:21;;;;;;;6.55;1.02;;;0.60;99.90;;;;;;4999664;28;20504;-64
2021/11/29 07:55:47;;;;;;;3.00;0.90;;;0.70;99.90;;;;;;5007542;28;20058;-64
2021/11/29 07:58:13;;;;;;;1.80;1.08;;;0.70;99.90;;;;;;4999446;28;20101;-64
2021/11/29 08:00:39;;;;;;;4.40;0.90;;;0.70;99.90;;;;;;5007351;28;20038;-64
2021/11/29 08:03:06;;;;;;;3.65;1.15;;;0.70;99.90;;;;;;5002638;28;20049;-64
2021/11/29 08:05:33;;;;;;;3.08;1.05;;;0.70;99.90;;;;;;5002096;28;20092;-64
2021/11/29 08:08:01;;;;;;;4.40;1.08;;;0.80;99.90;;;;;;4996516;28;20050;-69
2021/11/29 08:10:27;;;;;;;4.78;1.40;;;0.80;99.90;;;;;;5005820;28;20085;-64
2021/11/29 08:12:53;;;;;;;7.03;1.38;;;0.90;99.90;;;;;;4998834;28;20080;-63
2021/11/29 08:15:19;;;;;;;5.03;1.20;;;0.90;99.90;;;;;;5007045;28;20038;-63
2021/11/29 08:17:46;;;;;;;3.45;1.00;;;1.00;99.90;;;;;;4982254;28;20054;-63
2021/11/29 08:20:12;;;;;;;2.35;1.15;;;1.00;99.90;;;;;;4975122;28;20045;-63
2021/11/29 08:22:39;;;;;;;5.07;1.27;;;1.00;99.90;;;;;;5005871;28;20040;-63
2021/11/29 08:25:06;;;;;;;6.07;1.35;;;1.00;99.90;;;;;;5005488;28;20034;-64
2021/11/29 08:27:33;;;;;;;5.47;1.60;;;1.00;99.90;;;;;;5005213;28;20042;-63
2021/11/29 08:30:00;;;;;;;7.30;1.77;;;1.00;99.90;;;;;;4993871;28;20042;-64
2021/11/29 08:32:26;;;;;;;4.53;1.45;;;1.00;99.90;;;;;;5008609;28;20054;-64
2021/11/29 08:34:52;;;;;;;9.23;1.73;;;1.10;99.90;;;;;;5002548;28;20046;-64
2021/11/29 08:37:17;;;;;;;5.88;1.63;;;1.10;99.90;;;;;;5007433;28;20543;-64
2021/11/29 08:39:43;;;;;;;3.05;1.48;;;1.10;99.90;;;;;;5002593;28;20057;-64
2021/11/29 08:42:09;;;;;;;3.95;1.58;;;1.10;99.90;;;;;;5000763;28;20080;-64
2021/11/29 08:44:35;;;;;;;4.55;1.42;;;1.10;99.90;;;;;;5000836;28;20046;-64
2021/11/29 08:47:02;;;;;;;3.78;1.80;;;1.20;99.90;;;;;;5007620;28;20473;-64
2021/11/29 08:49:28;;;;;;;4.28;1.77;;;1.30;99.90;;;;;;5005106;28;20124;-64
2021/11/29 08:51:55;;;;;;;5.78;1.88;;;1.30;99.90;;;;;;5005450;28;20565;-64
2021/11/29 08:54:22;;;;;;;4.97;1.45;;;1.40;99.90;;;;;;4999770;28;20477;-64
2021/11/29 08:56:48;;;;;;;3.42;1.40;;;1.40;99.90;;;;;;5006633;28;20042;-64
2021/11/29 08:59:15;;;;;;;4.70;1.75;;;1.50;99.90;;;;;;5007028;28;20045;-64
2021/11/29 09:01:40;;;;;;;3.97;1.63;;;1.50;99.90;;;;;;5001034;28;20042;-64
2021/11/29 09:04:06;;;;;;;4.32;1.60;;;1.50;99.90;;;;;;5007279;28;20026;-64
2021/11/29 09:06:32;;;;;;;3.63;1.73;;;1.60;99.90;;;;;;5000360;28;20489;-64
2021/11/29 09:08:58;;;;;;;6.03;2.45;;;1.60;99.90;;;;;;5006543;28;20040;-64
2021/11/29 09:11:24;;;;;;;3.88;1.70;;;1.60;99.90;;;;;;5005411;28;20069;-65
2021/11/29 09:13:49;;;;;;;6.25;2.25;;;1.60;99.90;;;;;;5008798;28;20128;-64
2021/11/29 09:16:17;;;;;;;4.35;1.63;;;1.70;99.90;;;;;;5006888;28;20069;-64
2021/11/29 09:18:43;;;;;;;4.90;1.90;;;1.80;99.90;;;;;;4993274;28;20632;-64
2021/11/29 09:21:11;;;;;;;3.58;1.30;;;1.70;99.90;;;;;;5004707;28;20554;-64
2021/11/29 09:23:38;;;;;;;3.72;1.70;;;1.80;99.90;;;;;;5012064;28;20030;-65
2021/11/29 09:26:04;;;;;;;4.63;1.65;;;1.80;99.90;;;;;;4985593;28;20149;-65
2021/11/29 09:28:31;;;;;;;4.47;2.13;;;1.80;99.90;;;;;;5008797;28;20037;-64
2021/11/29 09:30:57;;;;;;;4.65;2.05;;;1.90;99.90;;;;;;5005753;28;20053;-65
2021/11/29 09:33:23;;;;;;;4.03;1.50;;;1.90;99.90;;;;;;5008584;28;20037;-65
2021/11/29 09:35:50;;;;;;;3.83;1.80;;;1.90;99.90;;;;;;4996223;28;20050;-65
2021/11/29 09:38:15;;;;;;;4.80;2.20;;;2.00;99.90;;;;;;4995980;28;20386;-65
2021/11/29 09:40:43;;;;;;;4.05;2.13;;;2.00;99.90;;;;;;5011775;28;20090;-65
2021/11/29 09:43:11;;;;;;;5.80;2.63;;;2.10;99.90;;;;;;5005987;28;20508;-64
2021/11/29 09:45:40;;;;;;;4.60;2.15;;;2.10;99.90;;;;;;5011149;28;20556;-64
2021/11/29 09:48:08;;;;;;;6.55;4.03;;;2.10;99.90;;;;;;5002517;28;20533;-64
2021/11/29 09:50:36;;;;;;;7.85;3.25;;;2.10;99.90;;;;;;5005053;28;20057;-64
2021/11/29 09:53:02;;;;;;;3.53;2.10;;;2.20;99.90;;;;;;5004020;28;20397;-64
2021/11/29 09:55:28;;;;;;;3.92;2.33;;;2.30;99.90;;;;;;5007442;28;20034;-64
2021/11/29 09:57:55;;;;;;;7.10;2.35;;;2.30;99.90;;;;;;5001808;28;20060;-64
2021/11/29 10:00:31;;;;;;;6.07;2.72;;;2.40;99.90;;;;;;5006842;28;20044;-64
2021/11/29 10:02:58;;;;;;;6.60;3.40;;;2.40;99.90;;;;;;5002498;28;20034;-64
2021/11/29 10:05:26;;;;;;;7.28;4.28;;;2.50;99.90;;;;;;5010039;28;20083;-64
2021/11/29 10:07:52;;;;;;;6.43;3.45;;;2.50;99.90;;;;;;4979329;28;20592;-64
2021/11/29 10:10:28;;;;;;;8.38;4.43;;;2.60;99.90;;;;;;4992660;28;20442;-64
2021/11/29 10:13:00;;;;;;;9.02;4.55;;;2.70;99.90;;;;;;4985362;28;20050;-64
2021/11/29 10:15:40;;;;;;;6.72;4.10;;;2.70;99.90;;;;;;5007546;28;20042;-64
2021/11/29 10:18:21;;;;;;;8.18;4.65;;;2.80;99.90;;;;;;4998840;28;20056;-64
2021/11/29 10:20:51;;;;;;;7.20;4.82;;;2.80;99.90;;;;;;5010471;28;20042;-64
2021/11/29 10:23:28;;;;;;;7.13;4.22;;;2.90;99.90;;;;;;5001569;28;20034;-64
2021/11/29 10:25:55;;;;;;;7.13;4.97;;;2.90;99.90;;;;;;5008414;28;20520;-64
2021/11/29 10:28:28;;;;;;;8.63;4.25;;;3.00;99.90;;;;;;5004737;28;20517;-64
2021/11/29 10:31:18;;;;;;;7.63;4.13;;;3.10;99.90;;;;;;5011564;28;20045;-64
2021/11/29 10:34:06;;;;;;;7.32;5.07;;;3.30;99.90;;;;;;5002898;28;20060;-64
2021/11/29 10:36:39;;;;;;;7.32;4.88;;;3.50;99.90;;;;;;5002548;28;20462;-64
2021/11/29 10:39:12;;;;;;;6.93;4.18;;;3.70;99.90;;;;;;4997551;28;20038;-64
2021/11/29 10:41:42;;;;;;;4.82;3.58;;;3.90;99.90;;;;;;5003709;28;20690;-64
2021/11/29 10:44:18;;;;;;;4.95;3.70;;;4.00;99.90;;;;;;5002058;28;20042;-64
2021/11/29 10:46:46;;;;;;;5.32;3.63;;;4.20;99.90;;;;;;5006966;28;20049;-63
2021/11/29 10:49:14;;;;;;;6.10;3.72;;;4.20;99.90;;;;;;5004303;28;20046;-63
2021/11/29 10:51:43;;;;;;;6.38;4.22;;;4.30;99.90;;;;;;5009515;28;20524;-63
2021/11/29 10:54:14;;;;;;;8.00;5.22;;;4.30;99.90;;;;;;5000693;28;20119;-63
2021/11/29 10:56:41;;;;;;;5.70;4.43;;;4.30;99.90;;;;;;5007160;28;20113;-63
2021/11/29 10:59:11;;;;;;;5.85;4.50;;;4.40;99.90;;;;;;4990496;28;20125;-63
2021/11/29 11:01:44;;;;;;;9.75;5.03;;;4.40;99.90;;;;;;5008380;28;20047;-63
2021/11/29 11:04:26;;;;;;;7.60;4.15;;;4.40;99.90;;;;;;5003136;28;20060;-63
2021/11/29 11:06:57;;;;;;;4.97;4.32;;;4.40;99.90;;;;;;5005913;28;20169;-64
2021/11/29 11:09:28;;;;;;;6.65;4.60;;;4.40;99.90;;;;;;4986232;28;20069;-64
2021/11/29 11:12:01;;;;;;;6.35;4.65;;;4.50;99.90;;;;;;5006428;28;20053;-64
2021/11/29 11:14:36;;;;;;;5.45;4.32;;;4.60;99.90;;;;;;5005533;28;20362;-64
2021/11/29 11:17:03;;;;;;;5.28;4.13;;;4.60;99.90;;;;;;5003890;28;20062;-64
2021/11/29 11:19:37;;;;;;;5.10;3.90;;;4.70;99.90;;;;;;5001397;28;20042;-64
2021/11/29 11:22:09;;;;;;;6.55;4.85;;;4.80;99.90;;;;;;5003188;28;20082;-64
2021/11/29 11:24:37;;;;;;;6.85;4.82;;;4.80;99.90;;;;;;5006036;28;20037;-65
2021/11/29 11:27:04;;;;;;;8.35;4.80;;;4.80;99.90;;;;;;5002467;28;20569;-65
2021/11/29 11:29:40;;;;;;;5.82;4.88;;;4.80;99.90;;;;;;5009530;28;20112;-65
2021/11/29 11:32:19;;;;;;;7.38;5.38;;;4.90;99.90;;;;;;5002086;28;20050;-65
2021/11/29 11:34:47;;;;;;;6.60;5.05;;;4.90;99.90;;;;;;4971133;28;20046;-65
2021/11/29 11:37:16;;;;;;;5.38;4.10;;;4.90;99.90;;;;;;4991307;28;20065;-65
2021/11/29 11:39:42;;;;;;;6.07;4.47;;;5.00;99.90;;;;;;5010685;28;20052;-64
2021/11/29 11:42:08;;;;;;;6.35;4.30;;;5.00;99.90;;;;;;5002546;28;20041;-64
2021/11/29 11:44:36;;;;;;;6.47;4.75;;;5.10;99.90;;;;;;5007759;28;20046;-64
2021/11/29 11:47:04;;;;;;;7.03;4.40;;;5.10;99.90;;;;;;4988484;28;20076;-65
2021/11/29 11:49:30;;;;;;;5.32;4.43;;;5.20;99.90;;;;;;5009408;28;20038;-64
2021/11/29 11:51:56;;;;;;;6.20;4.40;;;5.30;99.90;;;;;;5001498;28;20468;-64
2021/11/29 11:54:22;;;;;;;6.03;4.65;;;5.30;99.90;;;;;;5007820;28;20088;-64
2021/11/29 11:56:47;;;;;;;7.45;4.65;;;5.30;99.90;;;;;;5004221;28;20653;-64
2021/11/29 11:59:18;;;;;;;6.88;5.03;;;5.30;99.90;;;;;;5008231;28;20510;-64
2021/11/29 12:01:48;;;;;;;4.97;4.43;;;5.30;99.90;;;;;;4999411;28;20088;-64
2021/11/29 12:04:16;;;;;;;7.13;4.25;;;5.30;99.90;;;;;;5008136;28;20049;-64
2021/11/29 12:06:44;;;;;;;6.90;4.75;;;5.30;99.90;;;;;;5002260;28;20037;-64
2021/11/29 12:09:13;;;;;;;5.80;4.90;;;5.20;99.90;;;;;;5008282;28;20374;-64
2021/11/29 12:11:48;;;;;;;5.65;4.57;;;5.20;99.90;;;;;;4993231;28;20049;-64
2021/11/29 12:14:13;;;;;;;;;;;5.20;99.90;;;;;;5006933;28;20497;-64
2021/11/29 12:16:47;;;;;;;8.75;4.43;;;5.20;99.90;;;;;;5008356;28;19917;-64
2021/11/29 12:19:33;;;;;;;5.18;4.50;;;5.30;99.90;;;;;;5001470;28;20052;-64
2021/11/29 12:22:21;;;;;;;5.78;4.82;;;5.30;99.90;;;;;;5003428;28;20118;-64
2021/11/29 12:24:55;;;;;;;5.55;4.45;;;5.40;99.90;;;;;;5004254;28;20048;-64
2021/11/29 12:27:21;;;;;;;5.53;4.95;;;5.50;99.90;;;;;;5004669;28;20041;-65
2021/11/29 12:29:57;;;;;;;5.78;4.68;;;5.50;99.90;;;;;;4991810;28;20045;-64
2021/11/29 12:32:24;;;;;;;5.50;4.32;;;5.50;99.90;;;;;;5006945;28;20042;-64
2021/11/29 12:35:03;;;;;;;7.95;4.32;;;5.50;99.90;;;;;;5002081;28;20405;-64
2021/11/29 12:37:34;;;;;;;5.38;3.92;;;5.50;99.90;;;;;;5008101;28;20362;-64
2021/11/29 12:40:05;;;;;;;5.75;4.20;;;5.50;99.90;;;;;;5005084;28;20034;-64
2021/11/29 12:42:34;;;;;;;6.03;4.75;;;5.60;99.90;;;;;;5005482;28;20049;-64
2021/11/29 12:45:06;;;;;;;5.07;4.38;;;5.60;99.90;;;;;;4999483;28;20152;-64
2021/11/29 12:47:45;;;;;;;5.63;4.20;;;5.60;99.90;;;;;;5007443;28;20076;-64
2021/11/29 12:50:30;;;;;;;5.70;4.50;;;5.60;99.90;;;;;;5000998;28;20041;-64
2021/11/29 12:53:12;;;;;;;7.07;3.50;;;5.60;99.90;;;;;;5010722;28;20068;-64
2021/11/29 12:55:39;;;;;;;4.97;2.97;;;5.60;99.90;;;;;;5004530;28;20036;-64
2021/11/29 12:58:28;;;;;;;5.03;3.08;;;5.60;99.90;;;;;;5010979;28;20050;-64